Time;durP1;ratioP1;P1;durP2;ratioP2;P2;SDS_P1;SDS_P2;PMS_P1;PMS_P2;Temp;Humidity;BMP_temperature;BMP_pressure;BME280_temperature;BME280_humidity;BME280_pressure;Samples;Min_cycle;Max_cycle;Signal;HPM_P1;HPM_P2
2022/05/24 00:01:49;;;;;;;4.00;1.70;;;;;;;20.07;41.23;99227.75;4406210;32;32516;-60
2022/05/24 00:04:17;;;;;;;3.35;1.62;;;;;;;19.82;41.70;99227.84;4409122;32;34900;-59
2022/05/24 00:06:44;;;;;;;3.70;1.60;;;;;;;19.68;41.74;99225.19;4414691;32;33739;-60
2022/05/24 00:09:12;;;;;;;4.57;1.70;;;;;;;19.70;41.66;99226.09;4410919;32;32717;-60
2022/05/24 00:11:39;;;;;;;5.32;1.73;;;;;;;19.57;42.05;99211.22;4407377;32;33958;-60
2022/05/24 00:14:07;;;;;;;4.40;1.65;;;;;;;19.63;41.18;99206.81;4411772;32;34235;-59
2022/05/24 00:16:38;;;;;;;4.07;1.70;;;;;;;19.63;41.60;99201.56;4411078;32;33693;-59
2022/05/24 00:19:06;;;;;;;2.55;1.40;;;;;;;19.86;40.98;99202.41;4408253;32;34544;-59
2022/05/24 00:21:33;;;;;;;4.60;1.30;;;;;;;19.80;40.74;99198.06;4414871;32;33961;-60
2022/05/24 00:24:01;;;;;;;4.30;1.55;;;;;;;19.81;40.92;99205.91;4416945;32;34870;-59
2022/05/24 00:26:31;;;;;;;3.62;1.60;;;;;;;20.26;39.91;99194.41;4415246;32;33658;-59
2022/05/24 00:28:58;;;;;;;3.78;1.60;;;;;;;19.97;40.32;99190.12;4392675;32;31852;-60
2022/05/24 00:31:26;;;;;;;3.00;1.40;;;;;;;19.39;41.69;99185.81;4411685;32;33914;-60
2022/05/24 00:33:54;;;;;;;5.12;1.50;;;;;;;19.76;40.71;99188.41;4410984;32;34358;-60
2022/05/24 00:36:23;;;;;;;3.62;1.50;;;;;;;19.89;40.59;99181.38;4409749;32;33173;-60
2022/05/24 00:38:51;;;;;;;4.40;1.50;;;;;;;19.55;41.04;99182.31;4408441;32;33784;-61
2022/05/24 00:41:25;;;;;;;4.45;1.52;;;;;;;19.77;40.73;99188.41;4410189;32;34402;-59
2022/05/24 00:44:02;;;;;;;2.60;1.27;;;;;;;19.84;40.45;99195.41;4414100;32;34103;-60
2022/05/24 00:46:42;;;;;;;2.78;1.35;;;;;;;19.71;40.93;99190.16;4413825;32;34362;-61
2022/05/24 00:49:17;;;;;;;4.55;1.40;;;;;;;19.77;40.74;99188.41;4404976;32;33779;-59
2022/05/24 00:51:49;;;;;;;5.05;1.90;;;;;;;19.65;41.28;99188.41;4400046;32;32557;-60
2022/05/24 00:54:16;;;;;;;5.62;1.60;;;;;;;19.40;41.94;99187.56;4405926;32;32598;-60
2022/05/24 00:56:50;;;;;;;3.53;1.37;;;;;;;19.50;41.51;99191.06;4412088;32;32294;-61
2022/05/24 00:59:40;;;;;;;3.28;1.40;;;;;;;19.47;41.48;99193.69;4412925;32;33973;-59
2022/05/24 01:02:09;;;;;;;2.85;1.48;;;;;;;19.29;42.05;99190.19;4409370;32;34821;-59
2022/05/24 01:04:37;;;;;;;3.00;1.60;;;;;;;19.17;42.24;99185.81;4409691;32;34168;-60
2022/05/24 01:07:04;;;;;;;2.17;1.23;;;;;;;19.47;41.62;99191.97;4408878;32;33295;-60
2022/05/24 01:09:46;;;;;;;3.92;1.40;;;;;;;19.20;42.28;99185.84;4407834;32;33879;-61
2022/05/24 01:12:30;;;;;;;3.05;1.23;;;;;;;19.38;41.83;99184.94;4409973;32;33828;-58
2022/05/24 01:15:01;;;;;;;3.03;1.60;;;;;;;19.39;42.13;99181.47;4410682;32;34146;-61
2022/05/24 01:17:28;;;;;;;2.72;1.37;;;;;;;19.55;41.43;99184.06;4406047;32;32066;-60
2022/05/24 01:19:56;;;;;;;4.03;1.60;;;;;;;19.74;41.10;99193.69;4405176;32;33789;-60
2022/05/24 01:23:01;;;;;;;2.47;1.45;;;;;;;19.72;41.01;99198.09;4410479;32;33665;-59
2022/05/24 01:25:53;;;;;;;3.72;1.30;;;;;;;19.89;41.18;99207.66;4415728;32;34116;-59
2022/05/24 01:28:35;;;;;;;5.50;1.65;;;;;;;20.00;40.63;99203.25;4410753;32;33428;-61
2022/05/24 01:31:05;;;;;;;2.65;1.40;;;;;;;19.15;42.19;99203.31;4417348;32;33636;-59
2022/05/24 01:36:22;;;;;;;3.25;1.40;;;;;;;19.55;41.56;99213.84;4409935;32;34241;-61
2022/05/24 01:38:52;;;;;;;4.03;1.50;;;;;;;19.44;41.40;99231.34;4395136;32;33411;-60
2022/05/24 01:41:23;;;;;;;5.47;1.58;;;;;;;19.04;42.29;99247.06;4395098;32;34341;-60
2022/05/24 01:43:53;;;;;;;5.68;1.80;;;;;;;18.28;44.23;99286.13;4395603;32;34184;-59
2022/05/24 01:46:32;;;;;;;2.78;1.40;;;;;;;18.39;44.35;99285.31;4398942;32;32534;-60
2022/05/24 01:49:05;;;;;;;4.68;1.40;;;;;;;19.43;42.26;99266.34;4397448;32;33258;-61
2022/05/24 01:51:38;;;;;;;2.95;1.40;;;;;;;19.28;42.83;99264.63;4396096;32;34191;-59
2022/05/24 01:54:07;;;;;;;7.82;2.00;;;;;;;19.55;42.67;99255.00;4407741;32;34013;-60
2022/05/24 01:57:02;;;;;;;2.50;1.58;;;;;;;19.17;44.52;99212.06;4396646;32;34249;-60
2022/05/24 01:59:31;;;;;;;4.82;1.77;;;;;;;18.21;48.44;99166.34;4409692;32;34259;-60
2022/05/24 02:01:59;;;;;;;4.28;1.70;;;;;;;18.36;48.03;99176.03;4432567;26;33954;-88
2022/05/24 02:04:29;;;;;;;3.72;1.60;;;;;;;18.79;46.98;99188.38;4480154;32;34260;-86
2022/05/24 02:07:09;;;;;;;3.50;1.52;;;;;;;18.80;47.44;99200.66;4469002;32;33769;-88
2022/05/24 02:09:39;;;;;;;4.80;1.75;;;;;;;18.81;46.80;99205.94;4459278;32;31990;-88
2022/05/24 02:12:13;;;;;;;8.45;1.80;;;;;;;18.48;48.29;99219.78;4442552;32;32972;-89
2022/05/24 02:14:44;;;;;;;3.62;1.60;;;;;;;17.94;50.07;99237.00;4455712;32;33907;-88
2022/05/24 02:17:20;;;;;;;4.12;1.65;;;;;;;17.84;51.41;99247.41;4442132;32;34747;-87
2022/05/24 02:19:53;;;;;;;4.12;1.95;;;;;;;18.20;51.27;99263.38;4455707;32;34413;-88
2022/05/24 02:22:24;;;;;;;5.60;1.98;;;;;;;17.15;56.67;99259.06;4455750;32;33890;-88
2022/05/24 02:25:04;;;;;;;4.03;2.50;;;;;;;17.49;57.29;99266.34;4468795;32;33599;-87
2022/05/24 02:27:38;;;;;;;4.85;2.20;;;;;;;17.28;59.84;99267.03;4428369;32;32513;-87
2022/05/24 02:30:06;;;;;;;5.07;2.43;;;;;;;18.28;56.26;99286.13;4443103;32;32898;-87
2022/05/24 02:32:34;;;;;;;4.28;2.40;;;;;;;17.80;60.02;99287.53;4468652;32;33797;-87
2022/05/24 02:35:02;;;;;;;8.30;2.50;;;;;;;17.39;60.73;99301.16;4468421;32;33737;-86
2022/05/24 02:37:30;;;;;;;7.72;2.85;;;;;;;16.82;63.61;99302.31;4454254;32;33371;-87
2022/05/24 02:42:44;;;;;;;7.37;2.53;;;;;;;17.42;61.15;99298.59;4469114;32;34844;-87
2022/05/24 02:45:12;;;;;;;5.97;2.58;;;;;;;16.59;66.68;99310.75;4468712;32;34273;-87
2022/05/24 02:47:40;;;;;;;7.35;2.92;;;;;;;15.84;65.75;99318.38;4469092;32;34193;-87
2022/05/24 02:50:11;;;;;;;7.18;3.17;;;;;;;15.29;73.01;99314.81;4469659;32;33493;-86
2022/05/24 02:52:42;;;;;;;7.30;2.97;;;;;;;15.81;70.42;99314.84;4454846;32;33786;-86
2022/05/24 02:55:11;;;;;;;8.27;3.45;;;;;;;16.89;65.07;99312.88;4455423;32;33922;-85
2022/05/24 02:57:41;;;;;;;7.95;3.83;;;;;;;16.52;69.63;99319.34;4441792;32;34088;-84
2022/05/24 03:00:21;;;;;;;9.80;3.67;;;;;;;16.37;71.16;99313.94;4441287;32;34361;-84
2022/05/24 03:02:51;;;;;;;7.35;3.15;;;;;;;17.28;68.09;99306.28;4453940;32;33802;-84
2022/05/24 03:05:23;;;;;;;8.30;3.30;;;;;;;17.47;65.15;99309.97;4454868;32;34296;-83
2022/05/24 03:10:37;;;;;;;7.45;3.20;;;;;;;18.02;62.61;99299.09;4454321;32;34285;-84
2022/05/24 03:15:53;;;;;;;8.10;3.33;;;;;;;18.02;61.50;99288.59;4443967;32;32727;-83
2022/05/24 03:18:21;;;;;;;5.50;3.10;;;;;;;17.82;62.49;99280.56;4453881;32;34852;-83
2022/05/24 03:20:49;;;;;;;5.95;3.33;;;;;;;17.98;62.36;99275.44;4455338;32;32118;-83
2022/05/24 03:23:17;;;;;;;8.13;3.45;;;;;;;17.38;64.50;99274.97;4450899;32;34650;-83
2022/05/24 03:25:45;;;;;;;5.97;3.00;;;;;;;16.98;64.83;99275.47;4449674;32;33771;-82
2022/05/24 03:28:13;;;;;;;7.97;3.50;;;;;;;17.10;64.16;99288.66;4454246;32;34811;-82
2022/05/24 03:30:42;;;;;;;7.18;3.10;;;;;;;17.14;64.53;99288.72;4441044;32;33304;-82
2022/05/24 03:33:11;;;;;;;8.73;3.37;;;;;;;17.15;64.38;99307.03;4454401;32;33173;-82
2022/05/24 03:35:39;;;;;;;6.82;3.50;;;;;;;17.25;63.43;99321.13;4455356;32;32148;-83
2022/05/24 03:38:07;;;;;;;7.55;3.50;;;;;;;16.85;67.62;99344.22;4453037;32;33987;-83
2022/05/24 03:40:35;;;;;;;6.57;3.60;;;;;;;16.22;68.60;99357.25;4455093;32;34037;-83
2022/05/24 03:43:03;;;;;;;8.57;3.80;;;;;;;15.63;71.86;99355.44;4454313;32;32504;-83
2022/05/24 03:45:31;;;;;;;10.38;3.33;;;;;;;16.78;67.53;99353.66;4452539;32;33370;-83
2022/05/24 03:47:58;;;;;;;8.38;3.65;;;;;;;17.12;65.67;99341.03;4452736;32;32194;-84
2022/05/24 03:50:26;;;;;;;6.25;3.37;;;;;;;17.06;66.19;99331.37;4440362;32;33009;-83
2022/05/24 03:52:54;;;;;;;6.53;3.17;;;;;;;16.87;66.79;99321.56;4453773;32;32648;-83
2022/05/24 03:55:22;;;;;;;6.57;3.47;;;;;;;16.50;68.38;99321.06;4452999;32;34749;-83
2022/05/24 03:58:04;;;;;;;7.35;4.12;;;;;;;16.43;68.42;99327.06;4440545;32;32910;-84
2022/05/24 04:00:38;;;;;;;10.95;5.00;;;;;;;16.42;69.25;99334.03;4469051;32;33568;-83
2022/05/24 04:03:07;;;;;;;6.93;3.53;;;;;;;16.48;68.81;99333.25;4461340;32;34704;-84
2022/05/24 04:05:43;;;;;;;5.12;3.25;;;;;;;16.83;67.65;99325.00;4463976;32;33980;-83
2022/05/24 04:08:11;;;;;;;7.32;3.25;;;;;;;16.96;67.48;99326.91;4439041;32;32928;-84
2022/05/24 04:10:39;;;;;;;6.15;3.62;;;;;;;16.84;66.88;99342.44;4456274;32;34339;-84
2022/05/24 04:13:07;;;;;;;6.15;3.20;;;;;;;16.69;67.55;99346.59;4457599;32;33176;-84
2022/05/24 04:15:35;;;;;;;7.47;3.35;;;;;;;16.62;68.45;99343.88;4465992;32;34837;-84
2022/05/24 04:18:03;;;;;;;6.95;3.35;;;;;;;16.66;67.57;99348.28;4468295;32;34837;-84
2022/05/24 04:20:30;;;;;;;7.68;3.25;;;;;;;16.31;70.16;99348.69;4466714;32;33210;-84
2022/05/24 04:22:58;;;;;;;5.95;3.83;;;;;;;16.80;67.52;99345.84;4452574;32;33788;-84
2022/05/24 04:25:26;;;;;;;5.47;3.47;;;;;;;16.86;67.47;99352.09;4453371;32;33766;-84
2022/05/24 04:27:53;;;;;;;8.00;3.90;;;;;;;16.43;68.13;99350.59;4461787;32;34230;-83
2022/05/24 04:30:25;;;;;;;6.03;3.20;;;;;;;16.63;68.67;99359.59;4445117;32;33194;-83
2022/05/24 04:32:52;;;;;;;9.75;4.20;;;;;;;16.90;67.19;99358.19;4441378;32;33173;-83
2022/05/24 04:35:20;;;;;;;6.40;3.83;;;;;;;16.86;67.72;99359.03;4429452;32;33268;-83
2022/05/24 04:37:48;;;;;;;8.00;3.67;;;;;;;16.93;67.39;99358.25;4441855;32;33319;-83
2022/05/24 04:40:18;;;;;;;7.05;4.12;;;;;;;17.26;66.25;99351.66;4441079;32;32404;-83
2022/05/24 04:42:45;;;;;;;8.80;3.70;;;;;;;16.84;67.42;99358.13;4435812;32;33628;-83
2022/05/24 04:45:15;;;;;;;6.03;3.95;;;;;;;16.89;67.54;99362.56;4455451;32;34589;-83
2022/05/24 04:47:43;;;;;;;7.07;4.20;;;;;;;16.98;67.00;99361.81;4454409;32;34794;-83
2022/05/24 04:50:12;;;;;;;7.12;3.80;;;;;;;16.68;68.45;99367.50;4454387;32;33541;-83
2022/05/24 04:52:41;;;;;;;6.43;4.03;;;;;;;16.76;68.05;99375.44;4440632;32;33937;-82
2022/05/24 04:55:11;;;;;;;8.32;4.25;;;;;;;16.52;68.55;99375.13;4453259;32;32179;-83
2022/05/24 04:57:39;;;;;;;6.65;3.97;;;;;;;16.49;68.71;99368.97;4455370;32;33397;-83
2022/05/24 05:00:13;;;;;;;6.80;4.47;;;;;;;16.53;68.33;99373.38;4444664;32;33728;-83
2022/05/24 05:02:42;;;;;;;8.55;4.32;;;;;;;16.89;68.01;99366.94;4457819;32;34313;-83
2022/05/24 05:05:10;;;;;;;8.13;4.47;;;;;;;16.55;69.11;99355.97;4440836;32;32029;-83
2022/05/24 05:07:38;;;;;;;6.40;3.78;;;;;;;16.05;71.52;99353.53;4440649;32;33974;-83
2022/05/24 05:10:06;;;;;;;6.18;4.20;;;;;;;16.07;71.20;99357.03;4426273;32;32799;-81
2022/05/24 05:12:35;;;;;;;6.85;3.62;;;;;;;16.20;69.94;99353.75;4445267;32;32719;-83
2022/05/24 05:15:05;;;;;;;7.32;4.40;;;;;;;16.22;69.44;99365.09;4439683;32;33139;-82
2022/05/24 05:17:32;;;;;;;7.22;4.12;;;;;;;16.11;70.52;99364.97;4453235;32;34769;-83
2022/05/24 05:20:01;;;;;;;7.53;4.45;;;;;;;16.04;70.52;99367.44;4435339;32;33114;-83
2022/05/24 05:22:29;;;;;;;7.55;4.65;;;;;;;16.12;70.45;99368.44;4453214;32;33395;-83
2022/05/24 05:24:57;;;;;;;8.68;5.43;;;;;;;16.05;70.68;99358.75;4462846;32;33600;-82
2022/05/24 05:27:25;;;;;;;7.87;4.72;;;;;;;15.93;71.91;99356.81;4439028;32;32388;-83
2022/05/24 05:32:38;;;;;;;7.78;4.50;;;;;;;16.14;69.42;99369.34;4451140;32;33253;-84
2022/05/24 05:35:07;;;;;;;6.95;4.47;;;;;;;16.29;70.78;99369.56;4451321;32;33897;-82
2022/05/24 05:37:35;;;;;;;6.97;4.78;;;;;;;16.13;70.50;99375.44;4465138;32;34791;-83
2022/05/24 05:40:05;;;;;;;10.07;5.18;;;;;;;16.23;69.81;99374.72;4438407;32;33549;-83
2022/05/24 05:42:34;;;;;;;7.90;5.05;;;;;;;16.22;70.64;99378.16;4437874;32;31902;-82
2022/05/24 05:45:03;;;;;;;9.05;4.97;;;;;;;16.10;70.00;99376.25;4438798;32;33270;-82
2022/05/24 05:47:31;;;;;;;8.43;4.80;;;;;;;16.08;70.52;99374.47;4454284;32;34112;-82
2022/05/24 05:49:58;;;;;;;9.15;4.78;;;;;;;16.63;69.30;99375.28;4439893;32;32611;-82
2022/05/24 05:52:26;;;;;;;7.03;4.65;;;;;;;16.39;70.21;99380.16;4438435;32;32101;-83
2022/05/24 05:54:54;;;;;;;8.38;4.60;;;;;;;16.30;70.40;99375.66;4437667;32;32329;-82
2022/05/24 05:57:22;;;;;;;8.50;4.68;;;;;;;16.14;70.43;99374.56;4449600;32;33582;-82
2022/05/24 05:59:52;;;;;;;9.05;4.55;;;;;;;15.97;72.20;99381.25;4452090;32;33916;-82
2022/05/24 06:02:20;;;;;;;10.05;4.97;;;;;;;16.07;71.02;99377.94;4450702;32;32757;-82
2022/05/24 06:04:48;;;;;;;7.55;4.75;;;;;;;16.09;71.51;99376.25;4468596;32;33786;-82
2022/05/24 06:07:17;;;;;;;7.57;5.05;;;;;;;15.98;71.86;99377.81;4438836;32;33154;-82
2022/05/24 06:09:45;;;;;;;6.25;3.83;;;;;;;16.53;69.25;99378.63;4439883;32;33724;-81
2022/05/24 06:12:13;;;;;;;8.90;5.47;;;;;;;16.08;71.12;99384.94;4468159;32;33936;-82
2022/05/24 06:14:40;;;;;;;9.02;4.95;;;;;;;16.24;71.18;99383.44;4452085;32;33713;-82
2022/05/24 06:17:26;;;;;;;8.70;4.90;;;;;;;16.20;70.45;99379.88;4466738;32;34947;-81
2022/05/24 06:19:53;;;;;;;8.38;4.53;;;;;;;16.03;71.19;99377.03;4440770;32;33633;-82
2022/05/24 06:22:21;;;;;;;8.25;4.50;;;;;;;16.38;70.30;99374.06;4452723;32;34216;-81
2022/05/24 06:24:49;;;;;;;8.02;4.72;;;;;;;16.37;70.42;99376.66;4467388;32;33686;-82
2022/05/24 06:27:21;;;;;;;8.70;4.65;;;;;;;16.31;70.56;99370.47;4444206;32;32259;-84
2022/05/24 06:29:49;;;;;;;9.52;5.60;;;;;;;16.37;70.86;99368.81;4453440;32;34122;-80
2022/05/24 06:32:17;;;;;;;9.05;5.18;;;;;;;15.84;71.92;99365.41;4454051;32;32307;-81
2022/05/24 06:34:48;;;;;;;8.63;4.45;;;;;;;16.05;71.76;99363.97;4441787;32;33761;-84
2022/05/24 06:37:18;;;;;;;8.57;4.93;;;;;;;16.13;71.47;99370.22;4466593;32;34774;-80
2022/05/24 06:39:48;;;;;;;9.27;4.43;;;;;;;15.95;72.39;99372.53;4448402;32;33214;-83
2022/05/24 06:42:16;;;;;;;8.27;4.85;;;;;;;16.05;71.92;99385.78;4443728;32;32306;-82
2022/05/24 06:44:44;;;;;;;7.90;5.05;;;;;;;16.26;71.20;99389.56;4456825;32;34224;-82
2022/05/24 06:47:13;;;;;;;8.00;4.90;;;;;;;16.37;70.64;99385.38;4469537;32;34157;-83
2022/05/24 06:49:48;;;;;;;;;;;;;;;16.40;70.92;99387.12;4444123;32;33747;-83
2022/05/24 06:52:15;;;;;;;8.48;4.93;;;;;;;16.22;71.33;99392.97;4469661;32;33770;-83
2022/05/24 06:54:43;;;;;;;8.68;5.03;;;;;;;16.18;71.66;99392.03;4429539;32;33565;-81
2022/05/24 06:57:11;;;;;;;8.65;5.62;;;;;;;16.33;71.56;99401.00;4466101;32;33978;-81
2022/05/24 07:02:26;;;;;;;7.95;4.95;;;;;;;16.41;71.18;99404.59;4464770;32;33688;-82
2022/05/24 07:05:12;;;;;;;8.60;4.90;;;;;;;16.25;71.84;99400.88;4461321;32;33908;-82
2022/05/24 07:07:41;;;;;;;8.43;5.40;;;;;;;16.50;71.06;99405.59;4454443;32;34119;-81
2022/05/24 07:10:12;;;;;;;8.77;5.37;;;;;;;16.39;70.94;99403.69;4439758;32;32856;-84
2022/05/24 07:12:39;;;;;;;7.25;5.35;;;;;;;16.56;70.87;99394.38;4450188;32;32351;-85
2022/05/24 07:15:08;;;;;;;9.90;5.65;;;;;;;16.39;71.33;99401.09;4456358;32;33374;-83
2022/05/24 07:17:35;;;;;;;8.50;5.90;;;;;;;16.52;71.22;99397.78;4442075;32;33992;-83
2022/05/24 07:20:04;;;;;;;7.37;5.05;;;;;;;16.49;71.25;99393.38;4451558;32;33756;-80
2022/05/24 07:22:31;;;;;;;9.10;5.62;;;;;;;16.48;72.00;99390.78;4469369;32;33896;-84
2022/05/24 07:25:01;;;;;;;11.98;5.93;;;;;;;16.81;70.65;99399.94;4440462;32;34646;-84
2022/05/24 07:27:29;;;;;;;8.38;5.25;;;;;;;16.60;72.01;99388.31;4461849;32;34033;-79
2022/05/24 07:29:57;;;;;;;8.00;5.57;;;;;;;16.71;72.11;99389.34;4448119;32;33630;-82
2022/05/24 07:32:24;;;;;;;8.80;5.62;;;;;;;16.97;70.83;99391.44;4437515;32;32757;-82
2022/05/24 07:34:51;;;;;;;10.02;5.75;;;;;;;17.06;71.01;99391.56;4445713;32;33833;-85
2022/05/24 07:37:21;;;;;;;8.10;6.07;;;;;;;17.12;70.78;99397.75;4456239;32;33850;-85
2022/05/24 07:39:48;;;;;;;9.52;5.70;;;;;;;17.13;70.82;99402.97;4455098;32;33482;-84
2022/05/24 07:47:49;;;;;;;7.90;5.45;;;;;;;17.34;69.50;99391.87;4454445;32;33683;-84
2022/05/24 07:50:17;;;;;;;11.82;5.95;;;;;;;17.24;69.58;99387.41;4440843;32;32208;-82
2022/05/24 07:52:45;;;;;;;7.90;5.72;;;;;;;17.39;69.07;99389.31;4440896;32;33463;-81
2022/05/24 07:55:12;;;;;;;11.35;6.20;;;;;;;17.29;69.07;99399.69;4463682;32;33297;-82
2022/05/24 07:57:40;;;;;;;10.30;6.22;;;;;;;17.24;69.34;99401.34;4441487;32;34115;-79
2022/05/24 08:00:08;;;;;;;9.98;5.78;;;;;;;17.49;68.93;99392.03;4435753;32;31948;-82
2022/05/24 08:02:38;;;;;;;9.43;6.30;;;;;;;17.29;69.46;99404.03;4455857;32;34663;-84
2022/05/24 08:05:07;;;;;;;12.55;7.18;;;;;;;17.55;69.47;99406.06;4443549;32;34665;-83
2022/05/24 08:07:36;;;;;;;9.27;6.70;;;;;;;17.81;68.53;99419.38;4443464;32;33213;-83
2022/05/24 08:10:05;;;;;;;7.95;5.97;;;;;;;17.84;68.27;99404.63;4429880;32;32738;-85
2022/05/24 08:12:33;;;;;;;14.73;6.72;;;;;;;18.03;67.42;99410.03;4442291;32;32195;-81
2022/05/24 08:15:01;;;;;;;10.85;6.25;;;;;;;17.84;68.47;99404.63;4455040;32;34706;-82
2022/05/24 08:17:29;;;;;;;10.38;6.90;;;;;;;17.99;67.64;99403.88;4454336;32;32789;-82
2022/05/24 08:19:57;;;;;;;11.43;7.55;;;;;;;17.96;67.89;99392.50;4468517;32;34479;-86
2022/05/24 08:22:24;;;;;;;12.68;5.95;;;;;;;17.96;67.99;99395.97;4441227;32;33644;-82
2022/05/24 08:24:52;;;;;;;10.80;7.45;;;;;;;18.28;66.83;99396.22;4468072;32;33936;-84
2022/05/24 08:27:19;;;;;;;9.57;6.87;;;;;;;18.39;67.09;99398.94;4452898;32;34018;-85
2022/05/24 08:29:48;;;;;;;11.50;6.20;;;;;;;18.55;66.11;99389.41;4455502;32;33559;-83
2022/05/24 08:32:16;;;;;;;10.75;7.07;;;;;;;18.34;65.84;99399.78;4440384;32;33044;-83
2022/05/24 08:34:44;;;;;;;9.85;5.60;;;;;;;18.33;65.86;99395.38;4450783;32;32156;-82
2022/05/24 08:37:12;;;;;;;10.20;6.10;;;;;;;18.15;66.15;99399.63;4454726;32;34862;-82
2022/05/24 08:39:40;;;;;;;9.13;6.47;;;;;;;18.36;66.85;99398.03;4466275;32;34155;-84
2022/05/24 08:42:41;;;;;;;14.13;6.55;;;;;;;18.28;67.83;99400.59;4453591;32;34229;-81
2022/05/24 08:48:25;;;;;;;6.10;4.22;;;;;;;19.01;65.28;99389.69;4449377;32;34124;-84
2022/05/24 08:51:02;;;;;;;9.30;4.70;;;;;;;18.87;65.07;99396.59;4454799;32;32339;-82
2022/05/24 08:53:35;;;;;;;6.87;5.32;;;;;;;19.38;63.54;99389.78;4450087;32;33927;-84
2022/05/24 08:56:07;;;;;;;6.93;4.65;;;;;;;19.44;64.13;99383.69;4420900;32;32205;-82
2022/05/24 08:58:42;;;;;;;6.90;3.85;;;;;;;19.65;63.22;99396.84;4448884;32;34060;-85
2022/05/24 09:01:21;;;;;;;8.10;4.70;;;;;;;19.55;62.56;99392.47;4440755;32;33723;-81
2022/05/24 09:03:49;;;;;;;7.03;4.10;;;;;;;19.72;60.87;99397.78;4429643;32;33733;-85
2022/05/24 09:06:34;;;;;;;9.75;4.90;;;;;;;19.73;61.25;99385.53;4427181;32;33662;-83
2022/05/24 09:09:15;;;;;;;7.50;4.65;;;;;;;19.82;60.50;99394.28;4439504;32;34916;-83
2022/05/24 09:11:56;;;;;;;8.38;4.32;;;;;;;19.92;58.74;99397.78;4444246;32;33756;-84
2022/05/24 09:14:39;;;;;;;11.00;4.40;;;;;;;19.84;59.49;99407.44;4446019;32;34691;-82
2022/05/24 09:17:25;;;;;;;6.35;4.55;;;;;;;19.89;59.37;99407.44;4441462;32;33915;-84
2022/05/24 09:19:53;;;;;;;6.25;3.65;;;;;;;20.08;58.93;99397.78;4455644;32;34880;-84
2022/05/24 09:22:22;;;;;;;6.72;3.97;;;;;;;20.21;58.13;99405.69;4441211;32;34324;-85
2022/05/24 09:24:57;;;;;;;6.53;4.03;;;;;;;20.31;58.31;99405.69;4432266;32;31986;-84
2022/05/24 09:27:26;;;;;;;5.37;3.60;;;;;;;20.75;57.16;99407.37;4461587;32;33990;-84
2022/05/24 09:29:57;;;;;;;7.00;3.50;;;;;;;20.79;55.97;99393.31;4462355;32;34020;-82
2022/05/24 09:32:29;;;;;;;5.10;3.53;;;;;;;20.59;55.78;99391.63;4444673;32;33120;-82
2022/05/24 09:35:09;;;;;;;8.00;3.67;;;;;;;21.28;55.30;99401.00;4439908;32;34563;-81
2022/05/24 09:37:39;;;;;;;5.90;3.60;;;;;;;21.90;54.20;99395.38;4445236;32;33960;-82
2022/05/24 09:40:19;;;;;;;5.50;2.85;;;;;;;22.05;52.92;99397.03;4448678;32;34278;-82
2022/05/24 09:42:47;;;;;;;5.78;2.85;;;;;;;21.84;53.00;99398.94;4449420;32;33447;-82
2022/05/24 09:45:21;;;;;;;6.60;2.97;;;;;;;21.74;53.11;99398.13;4421758;32;33056;-83
2022/05/24 09:47:53;;;;;;;5.35;2.75;;;;;;;22.17;51.02;99408.34;4438338;32;33798;-81
2022/05/24 09:50:33;;;;;;;5.78;3.17;;;;;;;21.86;51.52;99409.47;4442422;32;34035;-82
2022/05/24 09:53:30;;;;;;;6.05;3.20;;;;;;;22.15;51.47;99398.69;4409435;32;32455;-82
2022/05/24 09:56:18;;;;;;;5.93;3.40;;;;;;;22.51;49.75;99408.06;4429484;32;32456;-81
2022/05/24 09:58:59;;;;;;;7.55;4.00;;;;;;;22.92;49.66;99398.78;4434861;32;34241;-82
2022/05/24 10:01:43;;;;;;;6.68;3.47;;;;;;;22.94;49.23;99393.50;4444599;32;33969;-82
2022/05/24 10:04:16;;;;;;;;;;;;;;;23.12;48.97;99406.53;4438706;32;33531;-83
2022/05/24 10:07:20;;;;;;;5.53;3.60;;;;;;;23.45;48.87;99411.38;4459060;32;34764;-82
2022/05/24 10:09:57;;;;;;;6.50;3.87;;;;;;;24.09;48.11;99407.78;4425348;32;34596;-83
2022/05/24 10:12:41;;;;;;;7.87;4.00;;;;;;;23.92;48.55;99399.25;4450707;32;33929;-82
2022/05/24 10:15:21;;;;;;;6.22;3.60;;;;;;;24.44;46.81;99402.78;4436396;32;33618;-83
2022/05/24 10:18:01;;;;;;;5.78;2.90;;;;;;;24.33;47.50;99405.59;4437321;32;33068;-83
2022/05/24 10:20:42;;;;;;;4.95;3.50;;;;;;;24.50;45.64;99398.22;4452036;32;32833;-83
2022/05/24 10:23:40;;;;;;;7.10;2.92;;;;;;;24.78;46.57;99387.12;4454822;32;34814;-83
2022/05/24 10:26:22;;;;;;;4.50;2.45;;;;;;;24.53;46.53;99392.94;4456009;32;33605;-83
2022/05/24 10:28:53;;;;;;;4.62;2.62;;;;;;;24.61;46.01;99389.25;4443074;32;34622;-81
2022/05/24 10:31:51;;;;;;;4.55;2.50;;;;;;;24.73;44.88;99384.59;4447734;32;34688;-82
2022/05/24 10:40:48;;;;;;;4.97;2.58;;;;;;;24.87;44.38;99379.00;4454006;32;34701;-83
2022/05/24 10:43:41;;;;;;;4.43;2.72;;;;;;;24.82;45.95;99370.31;4445718;32;33167;-83
2022/05/24 10:46:16;;;;;;;5.37;2.65;;;;;;;24.61;45.92;99370.69;4436294;32;32058;-83
2022/05/24 10:48:48;;;;;;;4.45;2.55;;;;;;;25.43;43.95;99380.50;4422694;32;31981;-82
2022/05/24 10:51:22;;;;;;;6.47;2.60;;;;;;;25.74;43.60;99375.34;4414341;32;34148;-82
2022/05/24 10:53:54;;;;;;;;;;;;;;;25.47;43.43;99367.13;4454362;32;33891;-82
2022/05/24 10:56:27;;;;;;;5.35;2.50;;;;;;;25.69;43.64;99369.28;4453245;32;34191;-82
2022/05/24 10:59:05;;;;;;;4.57;2.60;;;;;;;25.58;42.26;99374.84;4441727;32;32076;-82
2022/05/24 11:01:44;;;;;;;5.18;2.30;;;;;;;25.82;42.37;99372.53;4432968;32;33587;-82
2022/05/24 11:04:24;;;;;;;5.00;2.55;;;;;;;25.74;42.46;99363.88;4442382;32;33116;-82
2022/05/24 11:07:10;;;;;;;5.03;3.03;;;;;;;25.85;42.15;99356.53;4426701;32;34188;-81
2022/05/24 11:09:44;;;;;;;6.03;2.90;;;;;;;25.64;42.35;99349.97;4440353;32;33557;-82
2022/05/24 11:12:15;;;;;;;;;;;;;;;25.74;42.83;99337.34;4439559;32;33918;-83
2022/05/24 11:15:07;;;;;;;5.62;2.60;;;;;;;25.54;42.96;99343.16;4426311;32;32278;-82
2022/05/24 11:17:35;;;;;;;5.40;3.17;;;;;;;25.46;42.94;99343.34;4438662;32;33892;-84
2022/05/24 11:20:04;;;;;;;5.30;2.80;;;;;;;25.64;42.78;99352.63;4439437;32;33315;-84
2022/05/24 11:22:45;;;;;;;5.68;2.85;;;;;;;25.89;43.24;99352.91;4439815;32;33968;-85
2022/05/24 11:25:19;;;;;;;5.53;2.60;;;;;;;26.16;43.04;99345.19;4440099;32;33906;-83
2022/05/24 11:28:06;;;;;;;4.53;2.65;;;;;;;26.65;40.41;99355.34;4453821;32;34318;-84
2022/05/24 11:30:37;;;;;;;5.68;2.58;;;;;;;26.33;40.16;99357.97;4442793;32;33719;-84
2022/05/24 11:33:09;;;;;;;4.80;3.00;;;;;;;26.72;39.67;99350.75;4427914;32;33494;-85
2022/05/24 11:35:47;;;;;;;6.43;2.30;;;;;;;25.85;41.60;99345.94;4452930;32;33883;-83
2022/05/24 11:38:20;;;;;;;4.45;2.50;;;;;;;26.05;41.11;99341.00;4434417;32;32984;-85
2022/05/24 11:40:54;;;;;;;6.80;2.95;;;;;;;26.15;41.13;99338.97;4453743;32;33646;-84
2022/05/24 11:43:43;;;;;;;6.93;2.60;;;;;;;26.63;40.76;99335.06;4456576;32;34820;-85
2022/05/24 11:46:33;;;;;;;4.60;2.55;;;;;;;26.45;40.39;99347.03;4451845;32;33795;-84
2022/05/24 11:49:04;;;;;;;5.45;2.42;;;;;;;26.41;41.24;99343.59;4442055;32;34308;-88
2022/05/24 11:51:44;;;;;;;3.70;2.22;;;;;;;26.78;39.98;99339.94;4443025;32;33566;-86
2022/05/24 11:54:18;;;;;;;3.92;2.05;;;;;;;26.59;40.75;99344.03;4426890;32;33987;-86
2022/05/24 11:57:01;;;;;;;7.05;2.37;;;;;;;26.90;39.43;99333.38;4455629;32;34746;-87
2022/05/24 11:59:41;;;;;;;3.83;2.08;;;;;;;26.69;40.28;99342.84;4445982;32;33212;-85
2022/05/24 12:02:32;;;;;;;3.60;2.20;;;;;;;26.91;38.84;99328.94;4460061;32;33969;-85
2022/05/24 12:08:24;;;;;;;7.25;2.72;;;;;;;27.03;40.41;99315.31;4468935;32;33737;-88
2022/05/24 12:10:55;;;;;;;5.75;2.20;;;;;;;26.63;40.07;99316.47;4457832;32;34322;-85
2022/05/24 12:13:22;;;;;;;5.95;3.05;;;;;;;27.40;38.44;99317.72;4449563;32;33583;-85
2022/05/24 12:15:51;;;;;;;4.45;2.20;;;;;;;27.21;37.76;99319.16;4458085;32;34536;-87
2022/05/24 12:18:24;;;;;;;7.70;2.37;;;;;;;26.81;38.29;99317.72;4451658;32;33939;-85
2022/05/24 12:20:56;;;;;;;5.57;2.20;;;;;;;27.17;38.07;99313.06;4460751;32;33751;-86
2022/05/24 12:23:39;;;;;;;4.28;2.58;;;;;;;27.20;38.38;99320.97;4468596;32;33840;-86
2022/05/24 12:26:12;;;;;;;4.87;2.35;;;;;;;27.15;38.80;99312.25;4460957;32;33858;-86
2022/05/24 12:29:08;;;;;;;7.20;2.60;;;;;;;27.14;39.13;99315.84;4456163;32;34602;-87
2022/05/24 12:31:39;;;;;;;6.93;2.28;;;;;;;27.28;38.78;99314.59;4460995;32;33554;-86
2022/05/24 12:34:14;;;;;;;6.55;2.60;;;;;;;27.97;38.10;99312.31;4469450;32;34322;-87